Nacc Panarea — 9HBJ9 — position and weather

sailwx.info

Track history (hours):
 
Tides and Currents Weather Stations Pressure Air Temp Water Temp Dewpoint Dewpoint Depression Visibility Wind Speed Wind Dir Waves Ship Positions

Nacc Panarea

Last reported at 2018-Feb-17 19:05 UTC. Time now 2018-Feb-19 14:37 UTC.
Position N 17°06' W 062°00'.

Length 102 m; draft 4.3 m.

Type: Cargo ship. MMSI: 256740000.

Date/timePositionNaut miles runAvg speedWind from/ knotsBaromVisibWave heightAir tempDewpointWater temp
2018-Feb-17 19:05N 17°06' W 062°00'110.3
2018-Feb-17 19:00N 17°06' W 061°60'510.4
2018-Feb-17 18:30N 17°09' W 061°55'611.0
2018-Feb-17 18:00N 17°11' W 061°50'4 8.0
2018-Feb-17 17:30N 17°09' W 061°46'1 2.8
2018-Feb-17 16:59N 17°08' W 061°45'0 0.0
2018-Feb-17 16:29N 17°08' W 061°45'0 0.0
2018-Feb-17 15:59N 17°08' W 061°45'0 0.0
2018-Feb-17 15:29N 17°08' W 061°45'0 0.0
2018-Feb-17 14:59N 17°08' W 061°45'0 0.0
2018-Feb-17 14:29N 17°08' W 061°45'0 0.0
2018-Feb-17 13:59N 17°08' W 061°45'0 0.0
2018-Feb-17 13:29N 17°08' W 061°45'0 0.0
2018-Feb-17 12:59N 17°08' W 061°45'0 0.0
2018-Feb-17 12:29N 17°08' W 061°45'0 0.0
2018-Feb-17 11:56N 17°08' W 061°45'0 0.0
2018-Feb-17 11:26N 17°08' W 061°45'0 0.0
2018-Feb-17 10:59N 17°08' W 061°45'0 0.0
2018-Feb-17 10:29N 17°08' W 061°45'0 0.0
2018-Feb-17 09:59N 17°08' W 061°45'0 0.0
2018-Feb-17 09:29N 17°08' W 061°45'0 0.0
2018-Feb-17 08:59N 17°08' W 061°45'0 0.0
2018-Feb-17 08:29N 17°08' W 061°45'0 0.0
2018-Feb-17 07:59N 17°08' W 061°45'0 0.0
2018-Feb-17 07:29N 17°08' W 061°45'0 0.0
2018-Feb-17 06:59N 17°08' W 061°45'0 0.0
2018-Feb-17 06:29N 17°08' W 061°45'0 0.0
2018-Feb-17 05:59N 17°08' W 061°45'0 0.0
2018-Feb-17 05:29N 17°08' W 061°45'0 0.0
2018-Feb-17 04:59N 17°08' W 061°45'0 0.0
2018-Feb-17 04:29N 17°08' W 061°45'0 0.0
2018-Feb-17 03:59N 17°08' W 061°45'0 0.0
2018-Feb-17 03:29N 17°08' W 061°45'0 0.0
2018-Feb-17 02:59N 17°08' W 061°45'0 0.0
2018-Feb-17 02:29N 17°08' W 061°45'0 0.0
2018-Feb-17 01:59N 17°08' W 061°45'0 0.0
2018-Feb-17 01:26N 17°08' W 061°45'0 0.0
2018-Feb-17 00:59N 17°08' W 061°45'0 0.0
2018-Feb-17 00:26N 17°08' W 061°45'0 0.0
2018-Feb-16 23:59N 17°08' W 061°45'0 0.0
2018-Feb-16 23:29N 17°08' W 061°45'0 0.0
2018-Feb-16 22:59N 17°08' W 061°45'0 0.0
2018-Feb-16 22:30N 17°08' W 061°45'0 0.0
2018-Feb-16 22:00N 17°08' W 061°45'0 0.0
2018-Feb-16 21:29N 17°08' W 061°45'0 0.0
2018-Feb-16 21:00N 17°08' W 061°45'0 0.0
2018-Feb-16 20:30N 17°08' W 061°45'0 0.0
2018-Feb-16 20:00N 17°08' W 061°45'0 0.6
2018-Feb-16 19:30N 17°08' W 061°46'3 6.5
2018-Feb-16 19:00N 17°11' W 061°47'4 8.3
2018-Feb-16 18:31N 17°10' W 061°52'3 4.4
2018-Feb-16 17:55N 17°09' W 061°54'0 0.0
2018-Feb-16 17:28N 17°09' W 061°54'0 0.0
2018-Feb-16 16:58N 17°09' W 061°54'0 0.0
2018-Feb-16 16:22N 17°09' W 061°54'0 0.0
2018-Feb-16 15:58N 17°09' W 061°54'0 0.0
2018-Feb-16 15:28N 17°09' W 061°54'0 0.0
2018-Feb-16 14:58N 17°09' W 061°54'0 0.0
2018-Feb-16 14:28N 17°09' W 061°54'0 0.0
2018-Feb-16 13:58N 17°09' W 061°54'0 0.0
2018-Feb-16 13:28N 17°09' W 061°54'0 0.0
2018-Feb-16 12:58N 17°09' W 061°54'0 0.0
2018-Feb-16 12:28N 17°09' W 061°54'0 0.0
2018-Feb-16 11:55N 17°09' W 061°54'0 0.0
2018-Feb-16 11:28N 17°09' W 061°54'1 1.4
2018-Feb-16 11:00N 17°08' W 061°54'2 3.3
2018-Feb-16 10:30N 17°09' W 061°56'3 6.3
2018-Feb-16 10:00N 17°12' W 061°58'4 8.1
2018-Feb-16 09:30N 17°14' W 062°01'4 8.8
2018-Feb-16 09:00N 17°16' W 062°05'4 8.3
2018-Feb-16 08:30N 17°18' W 062°09'62 8.3
2018-Feb-16 01:06N 17°53' W 063°02'1 8.1
2018-Feb-16 01:00N 17°54' W 063°03'4 8.4
2018-Feb-16 00:28N 17°58' W 063°05'3 0.1
2018-Feb-14 15:09N 18°00' W 063°03'1 4.5
2018-Feb-14 14:59N 18°00' W 063°04'2 3.8
2018-Feb-14 14:30N 18°00' W 063°06'0 0.1
2018-Feb-14 14:00N 17°60' W 063°06'0 0.1
2018-Feb-14 13:30N 18°00' W 063°06'0 0.0
2018-Feb-14 13:00N 18°00' W 063°06'0 0.1
2018-Feb-14 12:29N 17°60' W 063°06'2 4.5
2018-Feb-14 11:59N 17°58' W 063°05'4 7.9
2018-Feb-14 11:29N 17°54' W 063°04'4 7.9
2018-Feb-14 11:00N 17°50' W 063°03'  
Track history (hours):
 
Tides and Currents Weather Stations Pressure Air Temp Water Temp Dewpoint Dewpoint Depression Visibility Wind Speed Wind Dir Waves Ship Positions

Nacc Panarea

Last reported at 2018-Feb-17 19:05 UTC. Time now 2018-Feb-19 14:37 UTC.
Position N 17°06' W 062°00'.

Length 102 m; draft 4.3 m.

Type: Cargo ship. MMSI: 256740000.

Date/timePositionNaut miles runAvg speedWind from/ knotsBaromVisibWave heightAir tempDewpointWater temp
2018-Feb-17 19:05N 17°06' W 062°00'110.3
2018-Feb-17 19:00N 17°06' W 061°60'510.4
2018-Feb-17 18:30N 17°09' W 061°55'611.0
2018-Feb-17 18:00N 17°11' W 061°50'4 8.0
2018-Feb-17 17:30N 17°09' W 061°46'1 2.8
2018-Feb-17 16:59N 17°08' W 061°45'0 0.0
2018-Feb-17 16:29N 17°08' W 061°45'0 0.0
2018-Feb-17 15:59N 17°08' W 061°45'0 0.0
2018-Feb-17 15:29N 17°08' W 061°45'0 0.0
2018-Feb-17 14:59N 17°08' W 061°45'0 0.0
2018-Feb-17 14:29N 17°08' W 061°45'0 0.0
2018-Feb-17 13:59N 17°08' W 061°45'0 0.0
2018-Feb-17 13:29N 17°08' W 061°45'0 0.0
2018-Feb-17 12:59N 17°08' W 061°45'0 0.0
2018-Feb-17 12:29N 17°08' W 061°45'0 0.0
2018-Feb-17 11:56N 17°08' W 061°45'0 0.0
2018-Feb-17 11:26N 17°08' W 061°45'0 0.0
2018-Feb-17 10:59N 17°08' W 061°45'0 0.0
2018-Feb-17 10:29N 17°08' W 061°45'0 0.0
2018-Feb-17 09:59N 17°08' W 061°45'0 0.0
2018-Feb-17 09:29N 17°08' W 061°45'0 0.0
2018-Feb-17 08:59N 17°08' W 061°45'0 0.0
2018-Feb-17 08:29N 17°08' W 061°45'0 0.0
2018-Feb-17 07:59N 17°08' W 061°45'0 0.0
2018-Feb-17 07:29N 17°08' W 061°45'0 0.0
2018-Feb-17 06:59N 17°08' W 061°45'0 0.0
2018-Feb-17 06:29N 17°08' W 061°45'0 0.0
2018-Feb-17 05:59N 17°08' W 061°45'0 0.0
2018-Feb-17 05:29N 17°08' W 061°45'0 0.0
2018-Feb-17 04:59N 17°08' W 061°45'0 0.0
2018-Feb-17 04:29N 17°08' W 061°45'0 0.0
2018-Feb-17 03:59N 17°08' W 061°45'0 0.0
2018-Feb-17 03:29N 17°08' W 061°45'0 0.0
2018-Feb-17 02:59N 17°08' W 061°45'0 0.0
2018-Feb-17 02:29N 17°08' W 061°45'0 0.0
2018-Feb-17 01:59N 17°08' W 061°45'0 0.0
2018-Feb-17 01:26N 17°08' W 061°45'0 0.0
2018-Feb-17 00:59N 17°08' W 061°45'0 0.0
2018-Feb-17 00:26N 17°08' W 061°45'0 0.0
2018-Feb-16 23:59N 17°08' W 061°45'0 0.0
2018-Feb-16 23:29N 17°08' W 061°45'0 0.0
2018-Feb-16 22:59N 17°08' W 061°45'0 0.0
2018-Feb-16 22:30N 17°08' W 061°45'0 0.0
2018-Feb-16 22:00N 17°08' W 061°45'0 0.0
2018-Feb-16 21:29N 17°08' W 061°45'0 0.0
2018-Feb-16 21:00N 17°08' W 061°45'0 0.0
2018-Feb-16 20:30N 17°08' W 061°45'0 0.0
2018-Feb-16 20:00N 17°08' W 061°45'0 0.6
2018-Feb-16 19:30N 17°08' W 061°46'3 6.5
2018-Feb-16 19:00N 17°11' W 061°47'4 8.3
2018-Feb-16 18:31N 17°10' W 061°52'3 4.4
2018-Feb-16 17:55N 17°09' W 061°54'0 0.0
2018-Feb-16 17:28N 17°09' W 061°54'0 0.0
2018-Feb-16 16:58N 17°09' W 061°54'0 0.0
2018-Feb-16 16:22N 17°09' W 061°54'0 0.0
2018-Feb-16 15:58N 17°09' W 061°54'0 0.0
2018-Feb-16 15:28N 17°09' W 061°54'0 0.0
2018-Feb-16 14:58N 17°09' W 061°54'0 0.0
2018-Feb-16 14:28N 17°09' W 061°54'0 0.0
2018-Feb-16 13:58N 17°09' W 061°54'0 0.0
2018-Feb-16 13:28N 17°09' W 061°54'0 0.0
2018-Feb-16 12:58N 17°09' W 061°54'0 0.0
2018-Feb-16 12:28N 17°09' W 061°54'0 0.0
2018-Feb-16 11:55N 17°09' W 061°54'0 0.0
2018-Feb-16 11:28N 17°09' W 061°54'1 1.4
2018-Feb-16 11:00N 17°08' W 061°54'2 3.3
2018-Feb-16 10:30N 17°09' W 061°56'3 6.3
2018-Feb-16 10:00N 17°12' W 061°58'4 8.1
2018-Feb-16 09:30N 17°14' W 062°01'4 8.8
2018-Feb-16 09:00N 17°16' W 062°05'4 8.3
2018-Feb-16 08:30N 17°18' W 062°09'62 8.3
2018-Feb-16 01:06N 17°53' W 063°02'1 8.1
2018-Feb-16 01:00N 17°54' W 063°03'4 8.4
2018-Feb-16 00:28N 17°58' W 063°05'3 0.1
2018-Feb-14 15:09N 18°00' W 063°03'1 4.5
2018-Feb-14 14:59N 18°00' W 063°04'2 3.8
2018-Feb-14 14:30N 18°00' W 063°06'0 0.1
2018-Feb-14 14:00N 17°60' W 063°06'0 0.1
2018-Feb-14 13:30N 18°00' W 063°06'0 0.0
2018-Feb-14 13:00N 18°00' W 063°06'0 0.1
2018-Feb-14 12:29N 17°60' W 063°06'2 4.5
2018-Feb-14 11:59N 17°58' W 063°05'4 7.9
2018-Feb-14 11:29N 17°54' W 063°04'4 7.9
2018-Feb-14 11:00N 17°50' W 063°03'  

Dump ship's entire track history